Decoded Metar for RJTY (YOKOTA in JAPAN) (IATA:OKO) | Meteo·Mobile Aviation Weather
aviador You're here:

RJTY Decoded Metar

YOKOTA in JAPAN
Report Time2018-12-13 03:56:00
UTC Time2018-12-13 04:17:09
Flight Rules vfr VFR
Wind330° at 05 kt
W.Decomp.*RWY 36: 4.6 kt HW 2 kt LCW
W.Rank330° ranks 13
Current wind is above 330° avg. (4.8)
Visibility9999 m
Phenomena:N/A
Clouds:Few 027 Hf
Broken 036 Hf
Overcast 046 Hf
Expected CloudBase > 4,800 ft AGL from Temp-Dew spread
Ceiling3,600 ft
Temp08°C (ISA -6)
Dew Point-4°C (43% RH)
AAT3.7°C
QNH1021 hPa
Density Alt-479 ft
Elevation456 ft
Report Wrong Elevation
Raw Report
RJTY 130356Z AUTO 33005KT 10SM FEW027 BKN036 OVC046 08/M04 A3016
RMK AO2 SLP222 T00831045 FZRANO $=

Extra information for RJTY:More info

Metar Taf Metar & Taf Last 4 Metars F.Rules Stats Wind Profile Meteogram Temp Stats Airport Information Weather charts Add Link Nearby VenuesMetar ALERT Operation Metar Decoded Social comments